sensor_id;sensor_type;location;lat;lon;timestamp;P1;P2;P0
76679;PMS5003;65597;51.520;-0.224;2023-03-13T00:01:00;13;8;
76679;PMS5003;65597;51.520;-0.224;2023-03-13T00:03:24;8;7;
76679;PMS5003;65597;51.520;-0.224;2023-03-13T00:05:54;6;5;
76679;PMS5003;65597;51.520;-0.224;2023-03-13T00:08:15;10;8;
76679;PMS5003;65597;51.520;-0.224;2023-03-13T00:10:40;8;7;
76679;PMS5003;65597;51.520;-0.224;2023-03-13T00:13:06;12;11;
76679;PMS5003;65597;51.520;-0.224;2023-03-13T00:15:31;11;9;
76679;PMS5003;65597;51.520;-0.224;2023-03-13T00:17:56;11;10;
76679;PMS5003;65597;51.520;-0.224;2023-03-13T00:20:22;16;13;
76679;PMS5003;65597;51.520;-0.224;2023-03-13T00:22:47;15;13;
76679;PMS5003;65597;51.520;-0.224;2023-03-13T00:25:13;14;13;
76679;PMS5003;65597;51.520;-0.224;2023-03-13T00:27:39;19;16;
76679;PMS5003;65597;51.520;-0.224;2023-03-13T00:30:03;21;14;
76679;PMS5003;65597;51.520;-0.224;2023-03-13T00:32:28;19;12;
76679;PMS5003;65597;51.520;-0.224;2023-03-13T00:34:54;18;14;
76679;PMS5003;65597;51.520;-0.224;2023-03-13T00:37:19;16;14;
76679;PMS5003;65597;51.520;-0.224;2023-03-13T00:39:45;17;14;
76679;PMS5003;65597;51.520;-0.224;2023-03-13T00:42:11;19;13;
76679;PMS5003;65597;51.520;-0.224;2023-03-13T00:44:36;22;15;
76679;PMS5003;65597;51.520;-0.224;2023-03-13T00:47:02;17;14;
76679;PMS5003;65597;51.520;-0.224;2023-03-13T00:49:27;22;16;
76679;PMS5003;65597;51.520;-0.224;2023-03-13T00:51:53;21;17;
76679;PMS5003;65597;51.520;-0.224;2023-03-13T00:54:18;23;16;
76679;PMS5003;65597;51.520;-0.224;2023-03-13T00:56:43;20;18;
76679;PMS5003;65597;51.520;-0.224;2023-03-13T00:59:09;28;18;
76679;PMS5003;65597;51.520;-0.224;2023-03-13T01:01:34;26;15;
76679;PMS5003;65597;51.520;-0.224;2023-03-13T01:04:02;16;13;
76679;PMS5003;65597;51.520;-0.224;2023-03-13T01:06:26;14;12;
76679;PMS5003;65597;51.520;-0.224;2023-03-13T01:08:50;11;9;
76679;PMS5003;65597;51.520;-0.224;2023-03-13T01:11:17;17;14;
76679;PMS5003;65597;51.520;-0.224;2023-03-13T01:13:41;16;12;
76679;PMS5003;65597;51.520;-0.224;2023-03-13T01:16:08;14;13;
76679;PMS5003;65597;51.520;-0.224;2023-03-13T01:18:32;16;12;
76679;PMS5003;65597;51.520;-0.224;2023-03-13T01:20:57;19;15;
76679;PMS5003;65597;51.520;-0.224;2023-03-13T01:23:23;18;15;
76679;PMS5003;65597;51.520;-0.224;2023-03-13T01:25:48;14;14;
76679;PMS5003;65597;51.520;-0.224;2023-03-13T01:28:14;16;16;
76679;PMS5003;65597;51.520;-0.224;2023-03-13T01:30:40;21;17;
76679;PMS5003;65597;51.520;-0.224;2023-03-13T01:33:05;13;12;
76679;PMS5003;65597;51.520;-0.224;2023-03-13T01:35:31;16;10;
76679;PMS5003;65597;51.520;-0.224;2023-03-13T01:37:56;11;10;
76679;PMS5003;65597;51.520;-0.224;2023-03-13T01:40:24;12;9;
76679;PMS5003;65597;51.520;-0.224;2023-03-13T01:42:48;10;8;
76679;PMS5003;65597;51.520;-0.224;2023-03-13T01:47:38;12;10;
76679;PMS5003;65597;51.520;-0.224;2023-03-13T01:50:03;8;5;
76679;PMS5003;65597;51.520;-0.224;2023-03-13T01:52:28;6;6;
76679;PMS5003;65597;51.520;-0.224;2023-03-13T01:54:54;15;9;
76679;PMS5003;65597;51.520;-0.224;2023-03-13T01:57:20;10;8;
76679;PMS5003;65597;51.520;-0.224;2023-03-13T01:59:45;9;6;
76679;PMS5003;65597;51.520;-0.224;2023-03-13T02:02:10;8;4;
76679;PMS5003;65597;51.520;-0.224;2023-03-13T02:04:37;8;6;
76679;PMS5003;65597;51.520;-0.224;2023-03-13T02:07:02;7;6;
76679;PMS5003;65597;51.520;-0.224;2023-03-13T02:09:26;6;5;
76679;PMS5003;65597;51.520;-0.224;2023-03-13T02:11:52;8;6;
76679;PMS5003;65597;51.520;-0.224;2023-03-13T02:14:18;6;5;
76679;PMS5003;65597;51.520;-0.224;2023-03-13T02:16:42;4;3;
76679;PMS5003;65597;51.520;-0.224;2023-03-13T02:19:10;5;5;
76679;PMS5003;65597;51.520;-0.224;2023-03-13T02:21:35;4;4;
76679;PMS5003;65597;51.520;-0.224;2023-03-13T02:24:01;3;3;
76679;PMS5003;65597;51.520;-0.224;2023-03-13T02:26:24;6;4;
76679;PMS5003;65597;51.520;-0.224;2023-03-13T02:28:51;3;3;
76679;PMS5003;65597;51.520;-0.224;2023-03-13T02:31:15;4;4;
76679;PMS5003;65597;51.520;-0.224;2023-03-13T02:33:41;4;4;
76679;PMS5003;65597;51.520;-0.224;2023-03-13T02:36:06;7;5;
76679;PMS5003;65597;51.520;-0.224;2023-03-13T02:38:32;5;4;
76679;PMS5003;65597;51.520;-0.224;2023-03-13T02:40:57;3;3;
76679;PMS5003;65597;51.520;-0.224;2023-03-13T02:43:23;3;3;
76679;PMS5003;65597;51.520;-0.224;2023-03-13T02:48:12;2;2;
76679;PMS5003;65597;51.520;-0.224;2023-03-13T02:50:38;2;2;
76679;PMS5003;65597;51.520;-0.224;2023-03-13T02:53:04;4;2;
76679;PMS5003;65597;51.520;-0.224;2023-03-13T02:55:30;3;3;
76679;PMS5003;65597;51.520;-0.224;2023-03-13T02:57:54;3;1;
76679;PMS5003;65597;51.520;-0.224;2023-03-13T03:00:20;3;2;
76679;PMS5003;65597;51.520;-0.224;2023-03-13T03:02:45;1;1;
76679;PMS5003;65597;51.520;-0.224;2023-03-13T03:05:11;1;1;
76679;PMS5003;65597;51.520;-0.224;2023-03-13T03:07:36;2;1;
76679;PMS5003;65597;51.520;-0.224;2023-03-13T03:10:01;0;0;
76679;PMS5003;65597;51.520;-0.224;2023-03-13T03:12:27;1;1;
76679;PMS5003;65597;51.520;-0.224;2023-03-13T03:14:52;2;1;
76679;PMS5003;65597;51.520;-0.224;2023-03-13T03:17:17;4;1;
76679;PMS5003;65597;51.520;-0.224;2023-03-13T03:19:43;1;1;
76679;PMS5003;65597;51.520;-0.224;2023-03-13T03:22:08;2;2;
76679;PMS5003;65597;51.520;-0.224;2023-03-13T03:24:34;2;1;
76679;PMS5003;65597;51.520;-0.224;2023-03-13T03:26:59;1;1;
76679;PMS5003;65597;51.520;-0.224;2023-03-13T03:29:25;0;0;
76679;PMS5003;65597;51.520;-0.224;2023-03-13T03:31:50;1;1;
76679;PMS5003;65597;51.520;-0.224;2023-03-13T03:34:16;2;2;
76679;PMS5003;65597;51.520;-0.224;2023-03-13T03:36:41;1;1;
76679;PMS5003;65597;51.520;-0.224;2023-03-13T03:39:06;1;1;
76679;PMS5003;65597;51.520;-0.224;2023-03-13T03:41:32;1;1;
76679;PMS5003;65597;51.520;-0.224;2023-03-13T03:43:57;1;1;
76679;PMS5003;65597;51.520;-0.224;2023-03-13T03:46:23;1;0;
76679;PMS5003;65597;51.520;-0.224;2023-03-13T03:48:48;2;2;
76679;PMS5003;65597;51.520;-0.224;2023-03-13T03:51:14;1;1;
76679;PMS5003;65597;51.520;-0.224;2023-03-13T03:53:41;2;2;
76679;PMS5003;65597;51.520;-0.224;2023-03-13T03:56:05;1;0;
76679;PMS5003;65597;51.520;-0.224;2023-03-13T03:58:30;0;0;
76679;PMS5003;65597;51.520;-0.224;2023-03-13T04:00:56;0;0;
76679;PMS5003;65597;51.520;-0.224;2023-03-13T04:03:21;1;0;
76679;PMS5003;65597;51.520;-0.224;2023-03-13T04:05:48;0;0;
76679;PMS5003;65597;51.520;-0.224;2023-03-13T04:08:12;1;1;
76679;PMS5003;65597;51.520;-0.224;2023-03-13T04:10:37;0;0;
76679;PMS5003;65597;51.520;-0.224;2023-03-13T04:13:03;0;0;
76679;PMS5003;65597;51.520;-0.224;2023-03-13T04:15:28;3;1;
76679;PMS5003;65597;51.520;-0.224;2023-03-13T04:17:54;1;1;
76679;PMS5003;65597;51.520;-0.224;2023-03-13T04:20:19;0;0;
76679;PMS5003;65597;51.520;-0.224;2023-03-13T04:22:44;5;1;
76679;PMS5003;65597;51.520;-0.224;2023-03-13T04:25:10;1;1;
76679;PMS5003;65597;51.520;-0.224;2023-03-13T04:27:35;1;1;
76679;PMS5003;65597;51.520;-0.224;2023-03-13T04:30:02;2;2;
76679;PMS5003;65597;51.520;-0.224;2023-03-13T04:32:26;3;2;
76679;PMS5003;65597;51.520;-0.224;2023-03-13T04:34:51;5;2;
76679;PMS5003;65597;51.520;-0.224;2023-03-13T04:37:17;4;4;
76679;PMS5003;65597;51.520;-0.224;2023-03-13T04:39:42;1;1;
76679;PMS5003;65597;51.520;-0.224;2023-03-13T04:42:08;8;3;
76679;PMS5003;65597;51.520;-0.224;2023-03-13T04:44:33;8;4;
76679;PMS5003;65597;51.520;-0.224;2023-03-13T04:46:58;6;3;
76679;PMS5003;65597;51.520;-0.224;2023-03-13T04:49:24;6;4;
76679;PMS5003;65597;51.520;-0.224;2023-03-13T04:51:49;7;6;
76679;PMS5003;65597;51.520;-0.224;2023-03-13T04:54:17;5;2;
76679;PMS5003;65597;51.520;-0.224;2023-03-13T04:56:40;8;5;
76679;PMS5003;65597;51.520;-0.224;2023-03-13T04:59:05;7;4;
76679;PMS5003;65597;51.520;-0.224;2023-03-13T05:01:31;7;5;
76679;PMS5003;65597;51.520;-0.224;2023-03-13T05:03:57;10;4;
76679;PMS5003;65597;51.520;-0.224;2023-03-13T05:06:23;7;6;
76679;PMS5003;65597;51.520;-0.224;2023-03-13T05:08:47;9;6;
76679;PMS5003;65597;51.520;-0.224;2023-03-13T05:11:12;9;7;
76679;PMS5003;65597;51.520;-0.224;2023-03-13T05:13:38;6;5;
76679;PMS5003;65597;51.520;-0.224;2023-03-13T05:16:04;7;5;
76679;PMS5003;65597;51.520;-0.224;2023-03-13T05:18:29;8;5;
76679;PMS5003;65597;51.520;-0.224;2023-03-13T05:20:54;4;3;
76679;PMS5003;65597;51.520;-0.224;2023-03-13T05:23:25;5;4;
76679;PMS5003;65597;51.520;-0.224;2023-03-13T05:25:45;8;5;
76679;PMS5003;65597;51.520;-0.224;2023-03-13T05:28:11;5;5;
76679;PMS5003;65597;51.520;-0.224;2023-03-13T05:30:36;5;3;
76679;PMS5003;65597;51.520;-0.224;2023-03-13T05:33:02;7;6;
76679;PMS5003;65597;51.520;-0.224;2023-03-13T05:35:27;6;4;
76679;PMS5003;65597;51.520;-0.224;2023-03-13T05:37:52;5;5;
76679;PMS5003;65597;51.520;-0.224;2023-03-13T05:40:17;8;6;
76679;PMS5003;65597;51.520;-0.224;2023-03-13T05:42:43;10;6;
76679;PMS5003;65597;51.520;-0.224;2023-03-13T05:45:08;6;5;
76679;PMS5003;65597;51.520;-0.224;2023-03-13T05:47:33;7;5;
76679;PMS5003;65597;51.520;-0.224;2023-03-13T05:49:59;6;3;
76679;PMS5003;65597;51.520;-0.224;2023-03-13T05:52:24;7;6;
76679;PMS5003;65597;51.520;-0.224;2023-03-13T05:54:51;9;5;
76679;PMS5003;65597;51.520;-0.224;2023-03-13T05:57:14;12;8;
76679;PMS5003;65597;51.520;-0.224;2023-03-13T05:59:40;9;5;
76679;PMS5003;65597;51.520;-0.224;2023-03-13T06:02:05;16;10;
76679;PMS5003;65597;51.520;-0.224;2023-03-13T06:04:31;9;5;
76679;PMS5003;65597;51.520;-0.224;2023-03-13T06:06:56;7;5;
76679;PMS5003;65597;51.520;-0.224;2023-03-13T06:09:21;7;6;
76679;PMS5003;65597;51.520;-0.224;2023-03-13T06:11:46;7;6;
76679;PMS5003;65597;51.520;-0.224;2023-03-13T06:14:12;8;5;
76679;PMS5003;65597;51.520;-0.224;2023-03-13T06:16:37;13;8;
76679;PMS5003;65597;51.520;-0.224;2023-03-13T06:19:03;7;6;
76679;PMS5003;65597;51.520;-0.224;2023-03-13T06:21:28;9;5;
76679;PMS5003;65597;51.520;-0.224;2023-03-13T06:23:54;6;5;
76679;PMS5003;65597;51.520;-0.224;2023-03-13T06:26:24;8;6;
76679;PMS5003;65597;51.520;-0.224;2023-03-13T06:28:44;12;7;
76679;PMS5003;65597;51.520;-0.224;2023-03-13T06:31:10;13;6;
76679;PMS5003;65597;51.520;-0.224;2023-03-13T06:33:34;9;6;
76679;PMS5003;65597;51.520;-0.224;2023-03-13T06:36:00;10;5;
76679;PMS5003;65597;51.520;-0.224;2023-03-13T06:38:26;17;6;
76679;PMS5003;65597;51.520;-0.224;2023-03-13T06:40:51;10;6;
76679;PMS5003;65597;51.520;-0.224;2023-03-13T06:43:17;11;8;
76679;PMS5003;65597;51.520;-0.224;2023-03-13T06:45:42;4;3;
76679;PMS5003;65597;51.520;-0.224;2023-03-13T06:48:07;13;7;
76679;PMS5003;65597;51.520;-0.224;2023-03-13T06:50:36;7;6;
76679;PMS5003;65597;51.520;-0.224;2023-03-13T06:52:58;12;7;
76679;PMS5003;65597;51.520;-0.224;2023-03-13T06:55:25;12;8;
76679;PMS5003;65597;51.520;-0.224;2023-03-13T06:57:49;11;8;
76679;PMS5003;65597;51.520;-0.224;2023-03-13T07:00:15;14;9;
76679;PMS5003;65597;51.520;-0.224;2023-03-13T07:02:40;20;13;
76679;PMS5003;65597;51.520;-0.224;2023-03-13T07:05:07;13;9;
76679;PMS5003;65597;51.520;-0.224;2023-03-13T07:07:33;14;8;
76679;PMS5003;65597;51.520;-0.224;2023-03-13T07:09:56;18;11;
76679;PMS5003;65597;51.520;-0.224;2023-03-13T07:12:22;23;11;
76679;PMS5003;65597;51.520;-0.224;2023-03-13T07:14:47;16;8;
76679;PMS5003;65597;51.520;-0.224;2023-03-13T07:17:13;19;10;
76679;PMS5003;65597;51.520;-0.224;2023-03-13T07:19:39;11;8;
76679;PMS5003;65597;51.520;-0.224;2023-03-13T07:22:04;13;10;
76679;PMS5003;65597;51.520;-0.224;2023-03-13T07:24:29;15;12;
76679;PMS5003;65597;51.520;-0.224;2023-03-13T07:26:54;16;7;
76679;PMS5003;65597;51.520;-0.224;2023-03-13T07:29:20;14;10;
76679;PMS5003;65597;51.520;-0.224;2023-03-13T07:31:46;15;10;
76679;PMS5003;65597;51.520;-0.224;2023-03-13T07:34:10;12;8;
76679;PMS5003;65597;51.520;-0.224;2023-03-13T07:36:36;18;12;
76679;PMS5003;65597;51.520;-0.224;2023-03-13T07:39:02;14;9;
76679;PMS5003;65597;51.520;-0.224;2023-03-13T07:41:27;12;9;
76679;PMS5003;65597;51.520;-0.224;2023-03-13T07:43:52;11;9;
76679;PMS5003;65597;51.520;-0.224;2023-03-13T07:46:18;17;10;
76679;PMS5003;65597;51.520;-0.224;2023-03-13T07:48:43;18;11;
76679;PMS5003;65597;51.520;-0.224;2023-03-13T07:51:10;18;10;
76679;PMS5003;65597;51.520;-0.224;2023-03-13T07:53:34;13;9;
76679;PMS5003;65597;51.520;-0.224;2023-03-13T07:56:00;16;10;
76679;PMS5003;65597;51.520;-0.224;2023-03-13T07:58:25;12;10;
76679;PMS5003;65597;51.520;-0.224;2023-03-13T08:00:50;14;10;
76679;PMS5003;65597;51.520;-0.224;2023-03-13T08:03:16;17;12;
76679;PMS5003;65597;51.520;-0.224;2023-03-13T08:05:41;20;13;
76679;PMS5003;65597;51.520;-0.224;2023-03-13T08:08:08;13;10;
76679;PMS5003;65597;51.520;-0.224;2023-03-13T08:10:32;16;9;
76679;PMS5003;65597;51.520;-0.224;2023-03-13T08:12:57;18;12;
76679;PMS5003;65597;51.520;-0.224;2023-03-13T08:15:23;18;11;
76679;PMS5003;65597;51.520;-0.224;2023-03-13T08:17:49;13;9;
76679;PMS5003;65597;51.520;-0.224;2023-03-13T08:20:16;18;8;
76679;PMS5003;65597;51.520;-0.224;2023-03-13T08:22:40;17;9;
76679;PMS5003;65597;51.520;-0.224;2023-03-13T08:25:06;17;9;
76679;PMS5003;65597;51.520;-0.224;2023-03-13T08:27:32;16;10;
76679;PMS5003;65597;51.520;-0.224;2023-03-13T08:29:57;12;6;
76679;PMS5003;65597;51.520;-0.224;2023-03-13T08:32:24;22;11;
76679;PMS5003;65597;51.520;-0.224;2023-03-13T08:34:49;15;9;
76679;PMS5003;65597;51.520;-0.224;2023-03-13T08:37:14;21;12;
76679;PMS5003;65597;51.520;-0.224;2023-03-13T08:39:40;17;11;
76679;PMS5003;65597;51.520;-0.224;2023-03-13T08:42:06;13;10;
76679;PMS5003;65597;51.520;-0.224;2023-03-13T08:44:31;19;10;
76679;PMS5003;65597;51.520;-0.224;2023-03-13T08:46:56;15;8;
76679;PMS5003;65597;51.520;-0.224;2023-03-13T08:49:21;14;8;
76679;PMS5003;65597;51.520;-0.224;2023-03-13T08:51:46;20;15;
76679;PMS5003;65597;51.520;-0.224;2023-03-13T08:54:12;7;6;
76679;PMS5003;65597;51.520;-0.224;2023-03-13T08:56:37;21;12;
76679;PMS5003;65597;51.520;-0.224;2023-03-13T08:59:04;21;13;
76679;PMS5003;65597;51.520;-0.224;2023-03-13T09:01:29;17;9;
76679;PMS5003;65597;51.520;-0.224;2023-03-13T09:03:54;14;11;
76679;PMS5003;65597;51.520;-0.224;2023-03-13T09:06:19;16;13;
76679;PMS5003;65597;51.520;-0.224;2023-03-13T09:08:46;15;10;
76679;PMS5003;65597;51.520;-0.224;2023-03-13T09:11:11;16;10;
76679;PMS5003;65597;51.520;-0.224;2023-03-13T09:13:37;18;9;
76679;PMS5003;65597;51.520;-0.224;2023-03-13T09:16:01;23;14;
76679;PMS5003;65597;51.520;-0.224;2023-03-13T09:18:26;11;9;
76679;PMS5003;65597;51.520;-0.224;2023-03-13T09:20:53;21;11;
76679;PMS5003;65597;51.520;-0.224;2023-03-13T09:23:18;12;8;
76679;PMS5003;65597;51.520;-0.224;2023-03-13T09:25:42;17;9;
76679;PMS5003;65597;51.520;-0.224;2023-03-13T09:28:08;22;13;
76679;PMS5003;65597;51.520;-0.224;2023-03-13T09:30:33;20;12;
76679;PMS5003;65597;51.520;-0.224;2023-03-13T09:33:00;18;12;
76679;PMS5003;65597;51.520;-0.224;2023-03-13T09:35:24;15;9;
76679;PMS5003;65597;51.520;-0.224;2023-03-13T09:37:50;17;14;
76679;PMS5003;65597;51.520;-0.224;2023-03-13T09:40:16;16;9;
76679;PMS5003;65597;51.520;-0.224;2023-03-13T09:42:43;16;10;
76679;PMS5003;65597;51.520;-0.224;2023-03-13T09:45:10;18;9;
76679;PMS5003;65597;51.520;-0.224;2023-03-13T09:47:33;18;10;
76679;PMS5003;65597;51.520;-0.224;2023-03-13T09:49:58;11;9;
76679;PMS5003;65597;51.520;-0.224;2023-03-13T09:52:23;22;14;
76679;PMS5003;65597;51.520;-0.224;2023-03-13T09:54:49;22;12;
76679;PMS5003;65597;51.520;-0.224;2023-03-13T09:57:15;20;12;
76679;PMS5003;65597;51.520;-0.224;2023-03-13T09:59:42;22;14;
76679;PMS5003;65597;51.520;-0.224;2023-03-13T10:02:06;12;11;
76679;PMS5003;65597;51.520;-0.224;2023-03-13T10:04:32;21;11;
76679;PMS5003;65597;51.520;-0.224;2023-03-13T10:06:56;16;9;
76679;PMS5003;65597;51.520;-0.224;2023-03-13T10:09:25;12;8;
76679;PMS5003;65597;51.520;-0.224;2023-03-13T10:11:50;19;12;
76679;PMS5003;65597;51.520;-0.224;2023-03-13T10:14:14;20;11;
76679;PMS5003;65597;51.520;-0.224;2023-03-13T10:16:40;16;10;
76679;PMS5003;65597;51.520;-0.224;2023-03-13T10:19:08;14;8;
76679;PMS5003;65597;51.520;-0.224;2023-03-13T10:21:31;26;11;
76679;PMS5003;65597;51.520;-0.224;2023-03-13T10:23:56;14;9;
76679;PMS5003;65597;51.520;-0.224;2023-03-13T10:26:22;13;9;
76679;PMS5003;65597;51.520;-0.224;2023-03-13T10:28:46;14;9;
76679;PMS5003;65597;51.520;-0.224;2023-03-13T10:31:12;12;9;
76679;PMS5003;65597;51.520;-0.224;2023-03-13T10:33:37;13;10;
76679;PMS5003;65597;51.520;-0.224;2023-03-13T10:36:06;11;8;
76679;PMS5003;65597;51.520;-0.224;2023-03-13T10:38:27;17;12;
76679;PMS5003;65597;51.520;-0.224;2023-03-13T10:40:55;17;12;
76679;PMS5003;65597;51.520;-0.224;2023-03-13T10:43:19;19;11;
76679;PMS5003;65597;51.520;-0.224;2023-03-13T10:45:45;27;9;
76679;PMS5003;65597;51.520;-0.224;2023-03-13T10:48:11;15;12;
76679;PMS5003;65597;51.520;-0.224;2023-03-13T10:50:35;19;11;
76679;PMS5003;65597;51.520;-0.224;2023-03-13T10:53:16;12;8;
76679;PMS5003;65597;51.520;-0.224;2023-03-13T10:55:26;21;11;
76679;PMS5003;65597;51.520;-0.224;2023-03-13T10:57:54;14;9;
76679;PMS5003;65597;51.520;-0.224;2023-03-13T11:00:26;16;9;
76679;PMS5003;65597;51.520;-0.224;2023-03-13T11:02:43;22;10;
76679;PMS5003;65597;51.520;-0.224;2023-03-13T11:07:34;23;11;
76679;PMS5003;65597;51.520;-0.224;2023-03-13T11:10:01;16;11;
76679;PMS5003;65597;51.520;-0.224;2023-03-13T11:12:25;18;12;
76679;PMS5003;65597;51.520;-0.224;2023-03-13T11:14:55;17;11;
76679;PMS5003;65597;51.520;-0.224;2023-03-13T11:17:19;18;12;
76679;PMS5003;65597;51.520;-0.224;2023-03-13T11:19:46;21;12;
76679;PMS5003;65597;51.520;-0.224;2023-03-13T11:22:14;23;14;
76679;PMS5003;65597;51.520;-0.224;2023-03-13T11:24:34;12;9;
76679;PMS5003;65597;51.520;-0.224;2023-03-13T11:26:59;17;11;
76679;PMS5003;65597;51.520;-0.224;2023-03-13T11:29:25;13;7;
76679;PMS5003;65597;51.520;-0.224;2023-03-13T11:31:50;20;10;
76679;PMS5003;65597;51.520;-0.224;2023-03-13T11:34:18;11;8;
76679;PMS5003;65597;51.520;-0.224;2023-03-13T11:36:42;18;10;
76679;PMS5003;65597;51.520;-0.224;2023-03-13T11:39:11;18;11;
76679;PMS5003;65597;51.520;-0.224;2023-03-13T11:41:36;16;9;
76679;PMS5003;65597;51.520;-0.224;2023-03-13T11:44:00;14;8;
76679;PMS5003;65597;51.520;-0.224;2023-03-13T11:46:25;19;9;
76679;PMS5003;65597;51.520;-0.224;2023-03-13T11:48:51;23;10;
76679;PMS5003;65597;51.520;-0.224;2023-03-13T11:51:15;15;10;
76679;PMS5003;65597;51.520;-0.224;2023-03-13T11:53:43;17;9;
76679;PMS5003;65597;51.520;-0.224;2023-03-13T11:56:06;10;8;
76679;PMS5003;65597;51.520;-0.224;2023-03-13T11:58:31;10;7;
76679;PMS5003;65597;51.520;-0.224;2023-03-13T12:00:56;11;8;
76679;PMS5003;65597;51.520;-0.224;2023-03-13T12:03:29;21;11;
76679;PMS5003;65597;51.520;-0.224;2023-03-13T12:05:47;15;10;
76679;PMS5003;65597;51.520;-0.224;2023-03-13T12:08:14;21;8;
76679;PMS5003;65597;51.520;-0.224;2023-03-13T12:10:37;12;7;
76679;PMS5003;65597;51.520;-0.224;2023-03-13T12:13:03;15;8;
76679;PMS5003;65597;51.520;-0.224;2023-03-13T12:15:28;19;11;
76679;PMS5003;65597;51.520;-0.224;2023-03-13T12:17:53;14;11;
76679;PMS5003;65597;51.520;-0.224;2023-03-13T12:20:19;14;8;
76679;PMS5003;65597;51.520;-0.224;2023-03-13T12:22:44;18;10;
76679;PMS5003;65597;51.520;-0.224;2023-03-13T12:25:10;15;8;
76679;PMS5003;65597;51.520;-0.224;2023-03-13T12:27:35;20;9;
76679;PMS5003;65597;51.520;-0.224;2023-03-13T12:30:00;17;11;
76679;PMS5003;65597;51.520;-0.224;2023-03-13T12:32:27;19;13;
76679;PMS5003;65597;51.520;-0.224;2023-03-13T12:34:54;19;9;
76679;PMS5003;65597;51.520;-0.224;2023-03-13T12:37:19;16;11;
76679;PMS5003;65597;51.520;-0.224;2023-03-13T12:39:42;12;8;
76679;PMS5003;65597;51.520;-0.224;2023-03-13T12:42:09;16;10;
76679;PMS5003;65597;51.520;-0.224;2023-03-13T12:44:32;14;9;
76679;PMS5003;65597;51.520;-0.224;2023-03-13T12:47:01;16;9;
76679;PMS5003;65597;51.520;-0.224;2023-03-13T12:51:51;22;8;
76679;PMS5003;65597;51.520;-0.224;2023-03-13T12:56:42;15;12;
76679;PMS5003;65597;51.520;-0.224;2023-03-13T12:59:04;16;11;
76679;PMS5003;65597;51.520;-0.224;2023-03-13T13:01:30;18;8;
76679;PMS5003;65597;51.520;-0.224;2023-03-13T13:03:55;14;8;
76679;PMS5003;65597;51.520;-0.224;2023-03-13T13:06:20;22;13;
76679;PMS5003;65597;51.520;-0.224;2023-03-13T13:08:47;13;9;
76679;PMS5003;65597;51.520;-0.224;2023-03-13T13:13:38;15;11;
76679;PMS5003;65597;51.520;-0.224;2023-03-13T13:16:03;15;12;
76679;PMS5003;65597;51.520;-0.224;2023-03-13T13:18:27;13;10;
76679;PMS5003;65597;51.520;-0.224;2023-03-13T13:23:20;13;9;
76679;PMS5003;65597;51.520;-0.224;2023-03-13T13:25:43;14;6;
76679;PMS5003;65597;51.520;-0.224;2023-03-13T13:28:10;17;10;
76679;PMS5003;65597;51.520;-0.224;2023-03-13T13:30:34;19;12;
76679;PMS5003;65597;51.520;-0.224;2023-03-13T13:35:30;21;12;
76679;PMS5003;65597;51.520;-0.224;2023-03-13T13:37:50;15;10;
76679;PMS5003;65597;51.520;-0.224;2023-03-13T13:40:30;22;15;
76679;PMS5003;65597;51.520;-0.224;2023-03-13T13:42:46;14;9;
76679;PMS5003;65597;51.520;-0.224;2023-03-13T13:47:32;10;8;
76679;PMS5003;65597;51.520;-0.224;2023-03-13T13:49:57;17;11;
76679;PMS5003;65597;51.520;-0.224;2023-03-13T13:54:52;24;15;
76679;PMS5003;65597;51.520;-0.224;2023-03-13T13:57:14;22;13;
76679;PMS5003;65597;51.520;-0.224;2023-03-13T13:59:41;20;13;
76679;PMS5003;65597;51.520;-0.224;2023-03-13T14:02:13;21;10;
76679;PMS5003;65597;51.520;-0.224;2023-03-13T14:04:32;15;9;
76679;PMS5003;65597;51.520;-0.224;2023-03-13T14:06:56;13;8;
76679;PMS5003;65597;51.520;-0.224;2023-03-13T14:09:23;20;7;
76679;PMS5003;65597;51.520;-0.224;2023-03-13T14:11:46;24;16;
76679;PMS5003;65597;51.520;-0.224;2023-03-13T14:14:13;8;5;
76679;PMS5003;65597;51.520;-0.224;2023-03-13T14:16:37;16;8;
76679;PMS5003;65597;51.520;-0.224;2023-03-13T14:19:02;12;10;
76679;PMS5003;65597;51.520;-0.224;2023-03-13T14:21:28;19;10;
76679;PMS5003;65597;51.520;-0.224;2023-03-13T14:23:54;15;11;
76679;PMS5003;65597;51.520;-0.224;2023-03-13T14:26:19;15;7;
76679;PMS5003;65597;51.520;-0.224;2023-03-13T14:28:45;17;12;
76679;PMS5003;65597;51.520;-0.224;2023-03-13T14:31:10;14;9;
76679;PMS5003;65597;51.520;-0.224;2023-03-13T14:33:35;15;12;
76679;PMS5003;65597;51.520;-0.224;2023-03-13T14:36:02;16;12;
76679;PMS5003;65597;51.520;-0.224;2023-03-13T14:38:26;13;10;
76679;PMS5003;65597;51.520;-0.224;2023-03-13T14:40:52;9;8;
76679;PMS5003;65597;51.520;-0.224;2023-03-13T14:43:18;21;13;
76679;PMS5003;65597;51.520;-0.224;2023-03-13T14:45:41;20;12;
76679;PMS5003;65597;51.520;-0.224;2023-03-13T14:48:12;27;19;
76679;PMS5003;65597;51.520;-0.224;2023-03-13T14:50:32;19;9;
76679;PMS5003;65597;51.520;-0.224;2023-03-13T14:52:58;10;8;
76679;PMS5003;65597;51.520;-0.224;2023-03-13T14:55:26;18;12;
76679;PMS5003;65597;51.520;-0.224;2023-03-13T14:57:54;22;11;
76679;PMS5003;65597;51.520;-0.224;2023-03-13T15:00:26;24;13;
76679;PMS5003;65597;51.520;-0.224;2023-03-13T15:02:40;26;17;
76679;PMS5003;65597;51.520;-0.224;2023-03-13T15:05:05;11;8;
76679;PMS5003;65597;51.520;-0.224;2023-03-13T15:07:35;11;7;
76679;PMS5003;65597;51.520;-0.224;2023-03-13T15:09:56;18;11;
76679;PMS5003;65597;51.520;-0.224;2023-03-13T15:12:23;15;9;
76679;PMS5003;65597;51.520;-0.224;2023-03-13T15:14:47;15;6;
76679;PMS5003;65597;51.520;-0.224;2023-03-13T15:17:13;13;8;
76679;PMS5003;65597;51.520;-0.224;2023-03-13T15:19:37;17;9;
76679;PMS5003;65597;51.520;-0.224;2023-03-13T15:22:02;11;9;
76679;PMS5003;65597;51.520;-0.224;2023-03-13T15:24:28;24;15;
76679;PMS5003;65597;51.520;-0.224;2023-03-13T15:26:54;15;9;
76679;PMS5003;65597;51.520;-0.224;2023-03-13T15:29:19;19;9;
76679;PMS5003;65597;51.520;-0.224;2023-03-13T15:31:45;19;10;
76679;PMS5003;65597;51.520;-0.224;2023-03-13T15:34:11;11;7;
76679;PMS5003;65597;51.520;-0.224;2023-03-13T15:36:36;12;7;
76679;PMS5003;65597;51.520;-0.224;2023-03-13T15:39:01;18;11;
76679;PMS5003;65597;51.520;-0.224;2023-03-13T15:41:27;15;9;
76679;PMS5003;65597;51.520;-0.224;2023-03-13T15:43:53;18;7;
76679;PMS5003;65597;51.520;-0.224;2023-03-13T15:46:18;19;9;
76679;PMS5003;65597;51.520;-0.224;2023-03-13T15:48:45;23;9;
76679;PMS5003;65597;51.520;-0.224;2023-03-13T15:51:09;15;11;
76679;PMS5003;65597;51.520;-0.224;2023-03-13T15:53:34;13;8;
76679;PMS5003;65597;51.520;-0.224;2023-03-13T15:56:00;14;9;
76679;PMS5003;65597;51.520;-0.224;2023-03-13T15:58:26;14;9;
76679;PMS5003;65597;51.520;-0.224;2023-03-13T16:00:52;8;7;
76679;PMS5003;65597;51.520;-0.224;2023-03-13T16:03:17;14;8;
76679;PMS5003;65597;51.520;-0.224;2023-03-13T16:05:41;11;6;
76679;PMS5003;65597;51.520;-0.224;2023-03-13T16:08:09;18;11;
76679;PMS5003;65597;51.520;-0.224;2023-03-13T16:10:32;7;5;
76679;PMS5003;65597;51.520;-0.224;2023-03-13T16:12:58;9;6;
76679;PMS5003;65597;51.520;-0.224;2023-03-13T16:15:23;11;6;
76679;PMS5003;65597;51.520;-0.224;2023-03-13T16:17:49;15;11;
76679;PMS5003;65597;51.520;-0.224;2023-03-13T16:20:15;7;6;
76679;PMS5003;65597;51.520;-0.224;2023-03-13T16:22:39;15;8;
76679;PMS5003;65597;51.520;-0.224;2023-03-13T16:25:06;8;6;
76679;PMS5003;65597;51.520;-0.224;2023-03-13T16:27:30;14;7;